বাংলা English Search

Weather may remain dry with temporary partly cloudy sky over the country.

METAR

METAR VGHS 262200Z 00000KT 3500 HZ NSC 24/19 Q1009 NOSIG=